createdAt,value
2017-04-18T00:00:16.977Z,0
2017-04-18T00:00:57.827Z,0
2017-04-18T00:01:38.713Z,0
2017-04-18T00:02:19.571Z,0
2017-04-18T00:03:00.441Z,0
2017-04-18T00:03:41.292Z,0
2017-04-18T00:04:22.178Z,0
2017-04-18T00:05:03.062Z,0
2017-04-18T00:05:43.957Z,0
2017-04-18T00:06:24.830Z,0
2017-04-18T00:07:05.710Z,0
2017-04-18T00:07:46.591Z,0
2017-04-18T00:08:27.462Z,0
2017-04-18T00:09:08.341Z,0
2017-04-18T00:09:49.222Z,0
2017-04-18T00:10:30.082Z,0
2017-04-18T00:11:10.954Z,0
2017-04-18T00:11:51.847Z,0
2017-04-18T00:12:32.745Z,0
2017-04-18T00:13:13.612Z,0
2017-04-18T00:13:54.482Z,0
2017-04-18T00:14:35.380Z,0
2017-04-18T00:15:16.255Z,0
2017-04-18T00:15:57.105Z,0
2017-04-18T00:16:37.987Z,0
2017-04-18T00:17:18.861Z,0
2017-04-18T00:17:59.718Z,0
2017-04-18T00:18:40.564Z,0
2017-04-18T00:19:21.415Z,0
2017-04-18T00:20:02.264Z,0
2017-04-18T00:20:43.117Z,0
2017-04-18T00:21:23.992Z,0
2017-04-18T00:22:04.866Z,0
2017-04-18T00:22:45.768Z,0
2017-04-18T00:23:26.645Z,0
2017-04-18T00:24:07.517Z,0
2017-04-18T00:24:48.369Z,0
2017-04-18T00:25:29.299Z,0
2017-04-18T00:26:10.171Z,0
2017-04-18T00:26:51.046Z,0
2017-04-18T00:27:31.900Z,0
2017-04-18T00:28:12.758Z,0
2017-04-18T00:28:53.637Z,0
2017-04-18T00:29:34.517Z,0
2017-04-18T00:30:15.380Z,0
2017-04-18T00:30:56.251Z,0
2017-04-18T00:31:37.114Z,0
2017-04-18T00:32:17.984Z,0
2017-04-18T00:32:58.869Z,0
2017-04-18T00:33:39.733Z,0
2017-04-18T00:34:20.609Z,0
2017-04-18T00:35:01.450Z,0
2017-04-18T00:35:42.326Z,0
2017-04-18T00:36:23.202Z,0
2017-04-18T00:37:04.095Z,0
2017-04-18T00:37:44.962Z,0
2017-04-18T00:38:25.820Z,0
2017-04-18T00:39:06.688Z,0
2017-04-18T00:39:47.567Z,0
2017-04-18T00:40:28.421Z,0
2017-04-18T00:41:09.279Z,0
2017-04-18T00:41:50.247Z,0
2017-04-18T00:42:31.122Z,0
2017-04-18T00:43:12.021Z,0
2017-04-18T00:43:52.896Z,0
2017-04-18T00:44:33.786Z,0
2017-04-18T00:45:14.664Z,0
2017-04-18T00:45:55.535Z,0
2017-04-18T00:46:36.437Z,0
2017-04-18T00:47:17.295Z,0
2017-04-18T00:47:58.156Z,0
2017-04-18T00:48:39.042Z,0
2017-04-18T00:49:19.909Z,0
2017-04-18T00:50:00.760Z,0
2017-04-18T00:50:41.634Z,0
2017-04-18T00:51:22.509Z,0
2017-04-18T00:52:03.373Z,0
2017-04-18T00:52:44.255Z,0
2017-04-18T00:53:25.113Z,0
2017-04-18T00:54:05.960Z,0
2017-04-18T00:54:46.807Z,0
2017-04-18T00:55:27.685Z,0
2017-04-18T00:56:08.536Z,0
2017-04-18T00:56:49.424Z,0
2017-04-18T00:57:30.278Z,0
2017-04-18T00:58:11.119Z,0
2017-04-18T00:58:51.986Z,0
2017-04-18T00:59:32.836Z,0
2017-04-18T01:00:13.697Z,0
2017-04-18T01:00:54.569Z,0
2017-04-18T01:01:35.444Z,0
2017-04-18T01:02:16.317Z,0
2017-04-18T01:02:57.198Z,0
2017-04-18T01:03:38.216Z,0
2017-04-18T01:04:18.924Z,0
2017-04-18T01:04:59.781Z,0
2017-04-18T01:05:40.654Z,0
2017-04-18T01:06:21.515Z,0
2017-04-18T01:07:02.391Z,0
2017-04-18T01:07:43.278Z,0
2017-04-18T01:08:24.163Z,0
2017-04-18T01:09:05.023Z,0
2017-04-18T01:09:45.896Z,0
2017-04-18T01:10:26.767Z,0
2017-04-18T01:11:07.643Z,0
2017-04-18T01:11:48.521Z,0
2017-04-18T01:12:29.390Z,0
2017-04-18T01:13:10.270Z,0
2017-04-18T01:13:51.150Z,0
2017-04-18T01:14:32.016Z,0
2017-04-18T01:15:12.893Z,0
2017-04-18T01:15:53.778Z,0
2017-04-18T01:16:34.653Z,0
2017-04-18T01:17:15.533Z,0
2017-04-18T01:17:56.398Z,0
2017-04-18T01:18:37.256Z,0
2017-04-18T01:19:18.119Z,0
2017-04-18T01:19:58.986Z,0
2017-04-18T01:20:39.854Z,0
2017-04-18T01:21:20.723Z,0
2017-04-18T01:22:01.610Z,0
2017-04-18T01:22:42.492Z,0
2017-04-18T01:23:23.361Z,0
2017-04-18T01:24:04.226Z,0
2017-04-18T01:24:45.086Z,0
2017-04-18T01:25:25.963Z,0
2017-04-18T01:26:06.820Z,0
2017-04-18T01:26:47.693Z,0
2017-04-18T01:27:28.567Z,0
2017-04-18T01:28:09.452Z,0
2017-04-18T01:28:50.313Z,0
2017-04-18T01:29:31.177Z,0
2017-04-18T01:30:12.039Z,0
2017-04-18T01:30:52.924Z,0
2017-04-18T01:31:33.799Z,0
2017-04-18T01:33:44.012Z,0
2017-04-18T01:34:24.896Z,0
2017-04-18T01:35:05.757Z,0
2017-04-18T01:35:46.660Z,0
2017-04-18T01:36:27.530Z,0
2017-04-18T01:37:08.404Z,0
2017-04-18T01:37:49.285Z,0
2017-04-18T01:38:30.167Z,0
2017-04-18T01:39:11.042Z,0
2017-04-18T01:39:51.922Z,0
2017-04-18T01:40:32.801Z,0
2017-04-18T01:41:13.675Z,0
2017-04-18T01:41:54.550Z,0
2017-04-18T01:42:35.419Z,0
2017-04-18T01:43:16.298Z,0
2017-04-18T01:43:57.179Z,0
2017-04-18T01:44:40.728Z,0
2017-04-18T01:45:21.583Z,0
2017-04-18T01:46:02.455Z,0
2017-04-18T01:46:43.325Z,0
2017-04-18T01:47:24.229Z,0
2017-04-18T01:48:05.071Z,0
2017-04-18T01:48:45.943Z,0
2017-04-18T01:49:26.800Z,0
2017-04-18T01:50:07.674Z,0
2017-04-18T01:50:48.510Z,0
2017-04-18T01:51:29.385Z,0
2017-04-18T01:52:10.239Z,0
2017-04-18T01:52:51.090Z,0
2017-04-18T01:53:31.958Z,0
2017-04-18T01:54:12.822Z,0
2017-04-18T01:54:53.683Z,0
2017-04-18T01:55:34.538Z,0
2017-04-18T01:56:15.389Z,0
2017-04-18T01:56:56.259Z,0
2017-04-18T01:57:37.095Z,0
2017-04-18T01:58:18.019Z,0
2017-04-18T01:58:58.864Z,0
2017-04-18T01:59:39.714Z,0
2017-04-18T02:00:20.594Z,0
2017-04-18T02:01:01.452Z,0
2017-04-18T02:01:42.302Z,0
2017-04-18T02:02:23.162Z,0
2017-04-18T02:03:04.025Z,0
2017-04-18T02:03:44.902Z,0
2017-04-18T02:04:25.767Z,0
2017-04-18T02:05:06.642Z,0
2017-04-18T02:05:47.505Z,0
2017-04-18T02:06:28.364Z,0
2017-04-18T02:07:09.245Z,0
2017-04-18T02:07:50.092Z,0
2017-04-18T02:08:30.954Z,0
2017-04-18T02:09:11.824Z,0
2017-04-18T02:09:52.703Z,0
2017-04-18T02:10:33.576Z,0
2017-04-18T02:11:14.443Z,0
2017-04-18T02:11:55.354Z,0
2017-04-18T02:14:34.770Z,0
2017-04-18T02:15:15.615Z,0
2017-04-18T02:15:56.512Z,0
2017-04-18T02:16:37.356Z,0
2017-04-18T02:17:18.210Z,0
2017-04-18T02:17:59.065Z,0
2017-04-18T02:18:39.921Z,0
2017-04-18T02:19:20.808Z,0
2017-04-18T02:20:01.698Z,0
2017-04-18T02:20:42.580Z,0
2017-04-18T02:21:26.103Z,0
2017-04-18T02:22:06.957Z,0
2017-04-18T02:22:47.821Z,0
2017-04-18T02:23:28.699Z,0
2017-04-18T02:24:09.566Z,0
2017-04-18T02:24:50.447Z,0
2017-04-18T02:25:31.340Z,0
2017-04-18T02:26:12.210Z,0
2017-04-18T02:26:53.098Z,0
2017-04-18T02:27:33.945Z,0
2017-04-18T02:28:14.790Z,0
2017-04-18T02:28:55.643Z,0
2017-04-18T02:29:36.529Z,0
2017-04-18T02:30:17.380Z,0
2017-04-18T02:30:58.268Z,0
2017-04-18T02:31:39.158Z,0
2017-04-18T02:32:20.029Z,0
2017-04-18T02:33:00.868Z,0
2017-04-18T02:33:41.736Z,0
2017-04-18T02:34:22.597Z,0
2017-04-18T02:35:03.454Z,0
2017-04-18T02:35:44.308Z,0
2017-04-18T02:36:25.175Z,0
2017-04-18T02:37:06.037Z,0
2017-04-18T02:37:46.903Z,0
2017-04-18T02:38:27.788Z,0
2017-04-18T02:39:08.672Z,0
2017-04-18T02:39:49.525Z,0
2017-04-18T02:40:30.410Z,0
2017-04-18T02:41:11.221Z,0
2017-04-18T02:41:52.097Z,0
2017-04-18T02:42:32.976Z,0
2017-04-18T02:43:13.841Z,0
2017-04-18T02:43:54.703Z,0
2017-04-18T02:44:35.571Z,0
2017-04-18T02:45:16.438Z,0
2017-04-18T02:45:57.294Z,0
2017-04-18T02:46:38.159Z,0
2017-04-18T02:47:19.021Z,0
2017-04-18T02:47:59.867Z,0
2017-04-18T02:48:40.721Z,0
2017-04-18T02:49:21.578Z,0
2017-04-18T02:50:02.435Z,0
2017-04-18T02:50:43.302Z,0
2017-04-18T02:51:24.161Z,0
2017-04-18T02:52:05.049Z,0
2017-04-18T02:52:45.907Z,0
2017-04-18T02:53:26.763Z,0
2017-04-18T02:54:07.643Z,0
2017-04-18T02:54:48.521Z,0
2017-04-18T02:55:29.397Z,0
2017-04-18T02:56:10.262Z,0
2017-04-18T02:56:51.141Z,0
2017-04-18T02:57:32.024Z,0
2017-04-18T02:58:12.922Z,0
2017-04-18T02:58:53.813Z,0
2017-04-18T02:59:34.689Z,0
2017-04-18T03:00:15.546Z,0
2017-04-18T03:00:56.434Z,0
2017-04-18T03:01:37.305Z,0
2017-04-18T03:02:18.169Z,0
2017-04-18T03:02:59.027Z,0
2017-04-18T03:03:39.914Z,0
2017-04-18T03:04:20.742Z,0
2017-04-18T03:05:01.604Z,0
2017-04-18T03:05:42.464Z,0
2017-04-18T03:06:23.339Z,0
2017-04-18T03:07:04.201Z,0
2017-04-18T03:07:45.064Z,0
2017-04-18T03:08:25.944Z,0
2017-04-18T03:09:06.833Z,0
2017-04-18T03:09:47.692Z,0
2017-04-18T03:10:28.570Z,0
2017-04-18T03:11:09.435Z,0
2017-04-18T03:11:50.311Z,0
2017-04-18T03:12:31.196Z,0
2017-04-18T03:13:12.049Z,0
2017-04-18T03:13:52.938Z,0
2017-04-18T03:14:33.802Z,0
2017-04-18T03:15:14.703Z,0
2017-04-18T03:15:55.582Z,0
2017-04-18T03:16:36.447Z,0
2017-04-18T03:17:17.329Z,0
2017-04-18T03:17:58.200Z,0
2017-04-18T03:18:39.067Z,0
2017-04-18T03:19:19.929Z,0
2017-04-18T03:20:00.827Z,0
2017-04-18T03:20:41.703Z,0
2017-04-18T03:21:22.582Z,0
2017-04-18T03:22:03.458Z,0
2017-04-18T03:22:44.317Z,0
2017-04-18T03:23:25.171Z,0
2017-04-18T03:24:06.037Z,0
2017-04-18T03:24:46.906Z,0
2017-04-18T03:25:27.775Z,0
2017-04-18T03:26:08.646Z,0
2017-04-18T03:26:49.519Z,0
2017-04-18T03:27:30.375Z,0
2017-04-18T03:28:11.257Z,0
2017-04-18T03:28:52.146Z,0
2017-04-18T03:29:33.020Z,0
2017-04-18T03:30:13.886Z,0
2017-04-18T03:30:54.733Z,0
2017-04-18T03:31:35.610Z,0
2017-04-18T03:32:16.513Z,0
2017-04-18T03:32:57.353Z,0
2017-04-18T03:33:38.254Z,0
2017-04-18T03:34:19.090Z,0
2017-04-18T03:34:59.961Z,0
2017-04-18T03:35:40.834Z,0
2017-04-18T03:36:21.694Z,0
2017-04-18T03:37:02.570Z,0
2017-04-18T03:37:43.426Z,0
2017-04-18T03:38:24.284Z,0
2017-04-18T03:39:05.154Z,0
2017-04-18T03:39:46.028Z,0
2017-04-18T03:40:26.871Z,0
2017-04-18T03:41:07.732Z,0
2017-04-18T03:41:48.598Z,0
2017-04-18T03:42:29.440Z,0
2017-04-18T03:43:10.323Z,0
2017-04-18T03:43:51.154Z,0
2017-04-18T03:44:32.004Z,0
2017-04-18T03:45:12.876Z,0
2017-04-18T03:45:53.689Z,0
2017-04-18T03:46:34.540Z,0
2017-04-18T03:47:15.394Z,0
2017-04-18T03:47:56.237Z,0
2017-04-18T03:48:37.134Z,0
2017-04-18T03:49:17.999Z,0
2017-04-18T03:49:58.828Z,0
2017-04-18T03:50:39.710Z,0
2017-04-18T03:51:20.546Z,0
2017-04-18T03:52:01.413Z,0
2017-04-18T03:52:42.314Z,0
2017-04-18T03:53:23.328Z,0
2017-04-18T03:54:04.156Z,0
2017-04-18T03:54:45.021Z,0
2017-04-18T03:55:25.885Z,0
2017-04-18T03:56:06.782Z,0
2017-04-18T03:56:47.653Z,0
2017-04-18T03:57:28.502Z,0
2017-04-18T03:58:09.372Z,0
2017-04-18T03:58:50.248Z,0
2017-04-18T03:59:31.112Z,0
2017-04-18T04:00:12.031Z,0
2017-04-18T04:00:52.888Z,0
2017-04-18T04:01:33.748Z,0
2017-04-18T04:02:14.616Z,0
2017-04-18T04:02:55.490Z,0
2017-04-18T04:03:36.371Z,0
2017-04-18T04:04:17.261Z,0
2017-04-18T04:04:58.120Z,0
2017-04-18T04:05:38.995Z,0
2017-04-18T04:06:19.858Z,0
2017-04-18T04:07:00.722Z,0
2017-04-18T04:07:41.610Z,0
2017-04-18T04:08:22.484Z,0
2017-04-18T04:09:03.365Z,0
2017-04-18T04:09:44.230Z,0
2017-04-18T04:10:25.092Z,0
2017-04-18T04:11:05.967Z,0
2017-04-18T04:11:46.827Z,0
2017-04-18T04:12:27.687Z,0
2017-04-18T04:13:08.571Z,0
2017-04-18T04:13:49.447Z,0
2017-04-18T04:14:30.332Z,0
2017-04-18T04:15:11.208Z,0
2017-04-18T04:15:52.077Z,0
2017-04-18T04:16:32.955Z,0
2017-04-18T04:17:13.837Z,0
2017-04-18T04:17:54.701Z,0
2017-04-18T04:18:35.757Z,0
2017-04-18T04:19:16.623Z,0
2017-04-18T04:19:57.508Z,0
2017-04-18T04:20:38.356Z,0
2017-04-18T04:21:19.223Z,0
2017-04-18T04:22:00.076Z,0
2017-04-18T04:22:40.921Z,0
2017-04-18T04:23:21.780Z,0
2017-04-18T04:24:02.627Z,0
2017-04-18T04:24:43.511Z,0
2017-04-18T04:25:24.368Z,0
2017-04-18T04:26:05.227Z,0
2017-04-18T04:26:46.095Z,0
2017-04-18T04:27:26.987Z,0
2017-04-18T04:28:07.845Z,0
2017-04-18T04:28:48.731Z,0
2017-04-18T04:29:29.587Z,0
2017-04-18T04:30:10.488Z,0
2017-04-18T04:30:51.326Z,0
2017-04-18T04:31:32.190Z,0
2017-04-18T04:32:13.064Z,0
2017-04-18T04:32:53.935Z,0
2017-04-18T04:33:34.794Z,0
2017-04-18T04:34:15.642Z,0
2017-04-18T04:34:56.498Z,0
2017-04-18T04:35:37.349Z,0
2017-04-18T04:36:18.201Z,0
2017-04-18T04:36:59.051Z,0
2017-04-18T04:37:39.954Z,0
2017-04-18T04:38:20.831Z,0
2017-04-18T04:39:01.681Z,0
2017-04-18T04:39:42.540Z,0
2017-04-18T04:40:23.428Z,0
2017-04-18T04:41:04.271Z,5
2017-04-18T04:41:45.160Z,5
2017-04-18T04:42:26.027Z,5
2017-04-18T04:43:06.902Z,5
2017-04-18T04:43:47.734Z,5
2017-04-18T04:44:28.605Z,5
2017-04-18T04:45:09.472Z,5
2017-04-18T04:45:50.328Z,5
2017-04-18T04:46:31.187Z,5
2017-04-18T04:47:12.054Z,5
2017-04-18T04:47:52.926Z,5
2017-04-18T04:48:33.804Z,5
2017-04-18T04:49:14.678Z,5
2017-04-18T04:49:55.544Z,5
2017-04-18T04:50:36.408Z,5
2017-04-18T04:51:17.266Z,5
2017-04-18T04:51:58.136Z,5
2017-04-18T04:52:39.926Z,5
2017-04-18T04:53:20.789Z,5
2017-04-18T04:54:01.667Z,5
2017-04-18T04:54:42.539Z,5
2017-04-18T04:55:23.412Z,5
2017-04-18T04:56:04.305Z,5
2017-04-18T04:56:45.177Z,5
2017-04-18T04:57:26.049Z,5
2017-04-18T04:58:06.928Z,5
2017-04-18T04:58:47.832Z,10
2017-04-18T04:59:28.706Z,10
2017-04-18T05:00:09.566Z,10
2017-04-18T05:00:50.434Z,10
2017-04-18T05:01:31.311Z,10
2017-04-18T05:02:12.227Z,10
2017-04-18T05:02:53.077Z,15
2017-04-18T05:03:34.006Z,15
2017-04-18T05:04:14.875Z,15
2017-04-18T05:04:55.748Z,15
2017-04-18T05:05:36.601Z,15
2017-04-18T05:06:17.461Z,15
2017-04-18T05:06:58.322Z,15
2017-04-18T05:07:39.178Z,15
2017-04-18T05:08:20.038Z,20
2017-04-18T05:09:00.882Z,25
2017-04-18T05:09:41.829Z,25
2017-04-18T05:10:22.716Z,25
2017-04-18T05:11:03.609Z,25
2017-04-18T05:11:44.435Z,25
2017-04-18T05:12:25.287Z,25
2017-04-18T05:13:06.140Z,25
2017-04-18T05:13:47.007Z,25
2017-04-18T05:14:27.863Z,25
2017-04-18T05:15:08.717Z,25
2017-04-18T05:15:49.592Z,25
2017-04-18T05:16:30.409Z,25
2017-04-18T05:17:11.327Z,25
2017-04-18T05:17:52.202Z,25
2017-04-18T05:18:33.076Z,25
2017-04-18T05:19:13.936Z,25
2017-04-18T05:19:54.801Z,25
2017-04-18T05:20:35.671Z,30
2017-04-18T05:21:16.526Z,30
2017-04-18T05:21:57.406Z,35
2017-04-18T05:22:38.254Z,35
2017-04-18T05:23:19.108Z,35
2017-04-18T05:23:59.994Z,30
2017-04-18T05:24:40.864Z,35
2017-04-18T05:25:21.722Z,35
2017-04-18T05:26:02.593Z,35
2017-04-18T05:26:43.428Z,35
2017-04-18T05:27:24.298Z,30
2017-04-18T05:28:05.166Z,30
2017-04-18T05:28:46.058Z,35
2017-04-18T05:29:26.927Z,35
2017-04-18T05:31:46.187Z,30
2017-04-18T05:34:34.432Z,25
2017-04-18T05:35:15.290Z,25
2017-04-18T05:35:56.166Z,25
2017-04-18T05:36:37.062Z,30
2017-04-18T05:37:17.913Z,30
2017-04-18T05:37:58.796Z,35
2017-04-18T05:38:39.683Z,35
2017-04-18T05:39:20.536Z,40
2017-04-18T05:40:01.399Z,40
2017-04-18T05:40:42.265Z,40
2017-04-18T05:41:23.173Z,40
2017-04-18T05:42:04.031Z,45
2017-04-18T05:42:44.916Z,45
2017-04-18T05:43:25.773Z,50
2017-04-18T05:44:06.640Z,50
2017-04-18T05:44:47.523Z,45
2017-04-18T05:45:28.401Z,45
2017-04-18T05:46:09.266Z,45
2017-04-18T05:46:50.138Z,45
2017-04-18T05:47:31.014Z,45
2017-04-18T05:48:11.882Z,45
2017-04-18T05:48:52.761Z,40
2017-04-18T05:49:33.600Z,40
2017-04-18T05:50:14.455Z,35
2017-04-18T05:50:56.027Z,35
2017-04-18T05:51:36.902Z,30
2017-04-18T05:52:17.805Z,30
2017-04-18T05:52:58.679Z,25
2017-04-18T05:53:39.573Z,25
2017-04-18T05:54:20.440Z,25
2017-04-18T05:55:01.317Z,25
2017-04-18T05:55:42.171Z,25
2017-04-18T05:56:23.051Z,25
2017-04-18T05:57:03.931Z,25
2017-04-18T05:57:44.809Z,30
2017-04-18T05:58:25.674Z,30
2017-04-18T05:59:06.545Z,30
2017-04-18T05:59:47.413Z,30
2017-04-18T06:00:28.270Z,35
2017-04-18T06:01:09.120Z,35
2017-04-18T06:01:49.981Z,35
2017-04-18T06:02:30.836Z,35
2017-04-18T06:03:11.699Z,35
2017-04-18T06:03:52.554Z,35
2017-04-18T06:04:33.406Z,35
2017-04-18T06:05:14.268Z,35
2017-04-18T06:05:55.128Z,35
2017-04-18T06:06:35.981Z,40
2017-04-18T06:07:16.839Z,50
2017-04-18T06:07:57.724Z,60
2017-04-18T06:08:38.557Z,65
2017-04-18T06:09:19.422Z,75
2017-04-18T06:10:00.280Z,85
2017-04-18T06:10:41.200Z,85
2017-04-18T06:11:22.091Z,95
2017-04-18T06:12:02.955Z,100
2017-04-18T06:12:43.802Z,110
2017-04-18T06:13:24.663Z,110
2017-04-18T06:14:05.520Z,95
2017-04-18T06:14:46.381Z,85
2017-04-18T06:15:27.239Z,85
2017-04-18T06:16:08.146Z,80
2017-04-18T06:16:49.032Z,85
2017-04-18T06:17:29.908Z,95
2017-04-18T06:18:10.764Z,90
2017-04-18T06:18:51.701Z,85
2017-04-18T06:19:32.573Z,85
2017-04-18T06:20:13.431Z,105
2017-04-18T06:20:54.300Z,145
2017-04-18T06:21:35.159Z,170
2017-04-18T06:22:16.019Z,165
2017-04-18T06:22:56.877Z,170
2017-04-18T06:23:37.731Z,180
2017-04-18T06:24:18.596Z,200
2017-04-18T06:24:59.483Z,215
2017-04-18T06:25:40.310Z,240
2017-04-18T06:26:21.175Z,250
2017-04-18T06:27:02.019Z,250
2017-04-18T06:27:42.884Z,255
2017-04-18T06:28:23.763Z,280
2017-04-18T06:29:04.646Z,285
2017-04-18T06:29:45.525Z,255
2017-04-18T06:30:26.389Z,255
2017-04-18T06:31:07.266Z,285
2017-04-18T06:31:48.155Z,300
2017-04-18T06:32:29.016Z,275
2017-04-18T06:33:09.886Z,250
2017-04-18T06:33:50.775Z,220
2017-04-18T06:34:31.671Z,200
2017-04-18T06:35:12.529Z,205
2017-04-18T06:35:53.376Z,220
2017-04-18T06:36:34.237Z,215
2017-04-18T06:37:15.121Z,200
2017-04-18T06:37:56.003Z,190
2017-04-18T06:38:36.884Z,220
2017-04-18T06:39:17.751Z,225
2017-04-18T06:39:58.629Z,250
2017-04-18T06:40:39.502Z,265
2017-04-18T06:41:20.348Z,265
2017-04-18T06:42:01.195Z,270
2017-04-18T06:42:42.053Z,305
2017-04-18T06:43:22.926Z,325
2017-04-18T06:44:03.784Z,330
2017-04-18T06:44:44.679Z,320
2017-04-18T06:45:25.576Z,290
2017-04-18T06:46:06.427Z,275
2017-04-18T06:46:47.299Z,250
2017-04-18T06:47:28.163Z,245
2017-04-18T06:48:09.029Z,220
2017-04-18T06:48:49.881Z,195
2017-04-18T06:49:30.800Z,180
2017-04-18T06:50:11.681Z,180
2017-04-18T06:50:52.543Z,185
2017-04-18T06:51:34.415Z,160
2017-04-18T06:52:15.273Z,160
2017-04-18T06:52:56.177Z,185
2017-04-18T06:53:37.001Z,195
2017-04-18T06:54:17.866Z,215
2017-04-18T06:54:58.732Z,270
2017-04-18T06:55:39.615Z,385
2017-04-18T06:56:20.521Z,420
2017-04-18T06:57:01.431Z,450
2017-04-18T06:57:42.288Z,425
2017-04-18T06:58:23.166Z,410
2017-04-18T06:59:04.049Z,400
2017-04-18T06:59:44.920Z,355
2017-04-18T07:00:25.797Z,310
2017-04-18T07:01:06.675Z,280
2017-04-18T07:01:47.543Z,265
2017-04-18T07:02:28.426Z,275
2017-04-18T07:03:09.308Z,285
2017-04-18T07:03:50.171Z,280
2017-04-18T07:04:31.044Z,270
2017-04-18T07:05:11.918Z,255
2017-04-18T07:05:52.792Z,250
2017-04-18T07:06:33.686Z,255
2017-04-18T07:07:14.576Z,285
2017-04-18T07:07:55.431Z,295
2017-04-18T07:08:36.351Z,315
2017-04-18T07:09:17.229Z,295
2017-04-18T07:09:58.086Z,335
2017-04-18T07:10:38.955Z,325
2017-04-18T07:11:19.827Z,285
2017-04-18T07:12:00.689Z,290
2017-04-18T07:12:41.571Z,265
2017-04-18T07:13:22.451Z,235
2017-04-18T07:14:03.334Z,220
2017-04-18T07:14:44.205Z,195
2017-04-18T07:15:25.079Z,215
2017-04-18T07:16:05.963Z,205
2017-04-18T07:16:46.836Z,205
2017-04-18T07:17:27.725Z,200
2017-04-18T07:18:08.596Z,165
2017-04-18T07:18:49.468Z,165
2017-04-18T07:19:30.338Z,165
2017-04-18T07:20:11.213Z,165
2017-04-18T07:20:52.090Z,170
2017-04-18T07:21:32.970Z,185
2017-04-18T07:22:13.835Z,195
2017-04-18T07:22:54.999Z,205
2017-04-18T07:23:35.867Z,215
2017-04-18T07:24:16.737Z,220
2017-04-18T07:24:57.599Z,210
2017-04-18T07:25:38.509Z,230
2017-04-18T07:26:19.375Z,215
2017-04-18T07:27:00.909Z,225
2017-04-18T07:27:41.821Z,240
2017-04-18T07:28:22.742Z,260
2017-04-18T07:29:03.622Z,250
2017-04-18T07:29:44.512Z,225
2017-04-18T07:30:25.379Z,225
2017-04-18T07:31:06.244Z,205
2017-04-18T07:31:47.126Z,225
2017-04-18T07:32:28.029Z,235
2017-04-18T07:33:08.911Z,265
2017-04-18T07:33:49.792Z,260
2017-04-18T07:34:30.667Z,280
2017-04-18T07:35:11.551Z,275
2017-04-18T07:35:52.421Z,265
2017-04-18T07:36:33.294Z,255
2017-04-18T07:37:14.201Z,275
2017-04-18T07:37:55.088Z,240
2017-04-18T07:38:35.954Z,185
2017-04-18T07:39:16.856Z,170
2017-04-18T07:39:57.702Z,150
2017-04-18T07:40:38.568Z,145
2017-04-18T07:41:19.441Z,160
2017-04-18T07:42:00.316Z,160
2017-04-18T07:42:41.217Z,150
2017-04-18T07:43:22.070Z,150
2017-04-18T07:44:02.947Z,145
2017-04-18T07:44:43.821Z,140
2017-04-18T07:45:24.687Z,150
2017-04-18T07:46:05.559Z,160
2017-04-18T07:46:46.439Z,165
2017-04-18T07:47:27.311Z,170
2017-04-18T07:48:08.184Z,170
2017-04-18T07:48:49.071Z,170
2017-04-18T07:49:29.957Z,165
2017-04-18T07:50:10.839Z,180
2017-04-18T07:50:51.714Z,215
2017-04-18T07:51:32.582Z,255
2017-04-18T07:52:13.461Z,275
2017-04-18T07:52:54.343Z,265
2017-04-18T07:53:35.278Z,255
2017-04-18T07:54:16.144Z,240
2017-04-18T07:54:57.019Z,220
2017-04-18T07:55:37.903Z,195
2017-04-18T07:56:18.784Z,175
2017-04-18T07:56:59.647Z,175
2017-04-18T07:57:40.505Z,180
2017-04-18T07:58:21.369Z,180
2017-04-18T07:59:02.243Z,190
2017-04-18T07:59:43.128Z,190
2017-04-18T08:00:24.034Z,175
2017-04-18T08:01:04.912Z,170
2017-04-18T08:01:45.779Z,155
2017-04-18T08:02:26.652Z,145
2017-04-18T08:03:07.537Z,130
2017-04-18T08:03:48.414Z,135
2017-04-18T08:04:29.286Z,145
2017-04-18T08:05:10.151Z,155
2017-04-18T08:05:51.018Z,170
2017-04-18T08:06:31.921Z,175
2017-04-18T08:07:12.775Z,195
2017-04-18T08:07:53.644Z,235
2017-04-18T08:08:34.522Z,235
2017-04-18T08:09:15.389Z,265
2017-04-18T08:09:56.248Z,305
2017-04-18T08:10:37.099Z,285
2017-04-18T08:11:17.961Z,350
2017-04-18T08:11:58.819Z,355
2017-04-18T08:12:39.673Z,410
2017-04-18T08:13:20.563Z,295
2017-04-18T08:14:02.414Z,290
2017-04-18T08:14:43.269Z,380
2017-04-18T08:15:24.139Z,570
2017-04-18T08:16:05.021Z,585
2017-04-18T08:16:45.904Z,435
2017-04-18T08:17:26.779Z,420
2017-04-18T08:18:07.647Z,420
2017-04-18T08:18:48.515Z,345
2017-04-18T08:19:29.386Z,315
2017-04-18T08:20:10.259Z,305
2017-04-18T08:20:51.122Z,325
2017-04-18T08:21:31.970Z,335
2017-04-18T08:22:12.823Z,325
2017-04-18T08:22:53.675Z,310
2017-04-18T08:23:34.538Z,325
2017-04-18T08:24:15.405Z,420
2017-04-18T08:24:56.319Z,650
2017-04-18T08:25:37.186Z,870
2017-04-18T08:26:18.061Z,810
2017-04-18T08:26:58.951Z,640
2017-04-18T08:27:39.826Z,665
2017-04-18T08:28:20.693Z,505
2017-04-18T08:29:01.569Z,495
2017-04-18T08:29:42.465Z,860
2017-04-18T08:30:23.334Z,860
2017-04-18T08:31:04.256Z,785
2017-04-18T08:31:45.133Z,795
2017-04-18T08:32:26.002Z,865
2017-04-18T08:33:06.880Z,815
2017-04-18T08:33:47.757Z,720
2017-04-18T08:34:28.646Z,830
2017-04-18T08:35:09.516Z,695
2017-04-18T08:35:50.404Z,425
2017-04-18T08:36:31.289Z,395
2017-04-18T08:37:12.177Z,350
2017-04-18T08:37:53.058Z,365
2017-04-18T08:38:33.953Z,465
2017-04-18T08:39:14.805Z,725
2017-04-18T08:39:55.674Z,840
2017-04-18T08:40:36.540Z,1585
2017-04-18T08:41:17.425Z,1555
2017-04-18T08:41:58.303Z,560
2017-04-18T08:42:39.181Z,450
2017-04-18T08:43:20.039Z,495
2017-04-18T08:44:00.894Z,500
2017-04-18T08:44:41.757Z,475
2017-04-18T08:45:22.616Z,520
2017-04-18T08:46:03.470Z,1475
2017-04-18T08:46:44.341Z,570
2017-04-18T08:47:25.190Z,410
2017-04-18T08:48:06.049Z,500
2017-04-18T08:48:46.944Z,635
2017-04-18T08:49:27.788Z,470
2017-04-18T08:50:08.633Z,595
2017-04-18T08:50:49.510Z,460
2017-04-18T08:51:30.397Z,340
2017-04-18T08:52:11.266Z,350
2017-04-18T08:52:52.134Z,445
2017-04-18T08:53:33.012Z,445
2017-04-18T08:54:13.895Z,595
2017-04-18T08:54:54.780Z,515
2017-04-18T08:55:35.652Z,565
2017-04-18T08:56:16.522Z,610
2017-04-18T08:56:57.383Z,505
2017-04-18T08:57:38.262Z,1530
2017-04-18T08:58:19.144Z,1010
2017-04-18T08:59:00.033Z,1220
2017-04-18T08:59:40.968Z,1390
2017-04-18T09:00:21.870Z,1455
2017-04-18T09:01:02.737Z,1935
2017-04-18T09:01:43.618Z,1620
2017-04-18T09:02:24.501Z,1360
2017-04-18T09:03:05.384Z,840
2017-04-18T09:03:46.271Z,740
2017-04-18T09:04:27.174Z,750
2017-04-18T09:05:08.064Z,770
2017-04-18T09:05:48.943Z,650
2017-04-18T09:06:29.826Z,515
2017-04-18T09:08:49.061Z,585
2017-04-18T09:09:29.945Z,470
2017-04-18T09:10:10.798Z,475
2017-04-18T09:10:51.709Z,590
2017-04-18T09:11:32.568Z,630
2017-04-18T09:12:13.430Z,475
2017-04-18T09:12:54.299Z,440
2017-04-18T09:13:35.165Z,465
2017-04-18T09:14:16.038Z,530
2017-04-18T09:14:56.938Z,580
2017-04-18T09:15:37.823Z,615
2017-04-18T09:16:18.699Z,655
2017-04-18T09:16:59.572Z,715
2017-04-18T09:17:40.440Z,785
2017-04-18T09:18:21.309Z,800
2017-04-18T09:19:02.183Z,805
2017-04-18T09:19:43.058Z,800
2017-04-18T09:20:23.934Z,835
2017-04-18T09:21:04.832Z,770
2017-04-18T09:21:45.714Z,805
2017-04-18T09:22:26.592Z,720
2017-04-18T09:23:07.480Z,715
2017-04-18T09:23:48.341Z,730
2017-04-18T09:24:29.210Z,795
2017-04-18T09:25:10.080Z,790
2017-04-18T09:25:51.003Z,740
2017-04-18T09:26:31.923Z,710
2017-04-18T09:27:12.762Z,685
2017-04-18T09:27:53.649Z,770
2017-04-18T09:28:34.495Z,760
2017-04-18T09:29:15.382Z,735
2017-04-18T09:29:56.248Z,500
2017-04-18T09:30:37.139Z,535
2017-04-18T09:31:18.021Z,615
2017-04-18T09:31:58.900Z,675
2017-04-18T09:32:39.780Z,1135
2017-04-18T09:33:20.650Z,775
2017-04-18T09:34:01.560Z,1290
2017-04-18T09:34:42.585Z,625
2017-04-18T09:36:36.177Z,955
2017-04-18T09:37:17.063Z,1380
2017-04-18T09:37:57.938Z,1590
2017-04-18T09:38:38.821Z,540
2017-04-18T09:39:19.703Z,845
2017-04-18T09:40:00.585Z,1375
2017-04-18T09:40:41.496Z,1315
2017-04-18T09:41:22.372Z,530
2017-04-18T09:42:03.244Z,470
2017-04-18T09:42:44.129Z,390
2017-04-18T09:43:25.018Z,335
2017-04-18T09:44:05.904Z,370
2017-04-18T09:44:46.788Z,585
2017-04-18T09:45:27.657Z,960
2017-04-18T09:46:08.532Z,830
2017-04-18T09:46:49.406Z,605
2017-04-18T09:47:30.272Z,480
2017-04-18T09:48:11.140Z,490
2017-04-18T09:48:51.995Z,780
2017-04-18T09:49:32.861Z,985
2017-04-18T09:50:13.741Z,705
2017-04-18T09:50:54.615Z,1315
2017-04-18T09:51:35.491Z,1620
2017-04-18T09:52:16.368Z,1910
2017-04-18T09:52:57.253Z,1005
2017-04-18T09:53:38.131Z,670
2017-04-18T09:54:19.013Z,700
2017-04-18T09:54:59.901Z,1070